sensor_id;sensor_type;location;lat;lon;timestamp;temperature;humidity
69436;SHT31;56625;54.322;18.582;2023-07-31T00:01:07;16.25;84.32
69436;SHT31;56625;54.322;18.582;2023-07-31T00:03:48;16.20;84.66
69436;SHT31;56625;54.322;18.582;2023-07-31T00:06:30;16.17;84.79
69436;SHT31;56625;54.322;18.582;2023-07-31T00:09:19;16.14;85.07
69436;SHT31;56625;54.322;18.582;2023-07-31T00:12:14;16.12;85.46
69436;SHT31;56625;54.322;18.582;2023-07-31T00:15:09;16.10;85.63
69436;SHT31;56625;54.322;18.582;2023-07-31T00:18:05;16.09;85.88
69436;SHT31;56625;54.322;18.582;2023-07-31T00:21:00;16.06;86.14
69436;SHT31;56625;54.322;18.582;2023-07-31T00:23:55;16.03;86.39
69436;SHT31;56625;54.322;18.582;2023-07-31T00:26:50;16.00;86.71
69436;SHT31;56625;54.322;18.582;2023-07-31T00:29:45;15.98;86.99
69436;SHT31;56625;54.322;18.582;2023-07-31T00:32:40;15.97;86.96
69436;SHT31;56625;54.322;18.582;2023-07-31T00:35:35;15.97;86.98
69436;SHT31;56625;54.322;18.582;2023-07-31T00:38:30;15.96;87.04
69436;SHT31;56625;54.322;18.582;2023-07-31T00:41:25;15.96;86.97
69436;SHT31;56625;54.322;18.582;2023-07-31T00:44:20;15.96;87.04
69436;SHT31;56625;54.322;18.582;2023-07-31T00:46:54;15.94;87.06
69436;SHT31;56625;54.322;18.582;2023-07-31T00:49:44;15.90;87.22
69436;SHT31;56625;54.322;18.582;2023-07-31T00:52:19;15.87;87.21
69436;SHT31;56625;54.322;18.582;2023-07-31T00:55:08;15.84;87.19
69436;SHT31;56625;54.322;18.582;2023-07-31T00:57:43;15.81;87.12
69436;SHT31;56625;54.322;18.582;2023-07-31T01:00:33;15.80;87.16
69436;SHT31;56625;54.322;18.582;2023-07-31T01:03:07;15.78;87.26
69436;SHT31;56625;54.322;18.582;2023-07-31T01:08:41;15.77;87.30
69436;SHT31;56625;54.322;18.582;2023-07-31T01:11:57;15.75;87.30
69436;SHT31;56625;54.322;18.582;2023-07-31T01:15:03;15.71;87.30
69436;SHT31;56625;54.322;18.582;2023-07-31T01:17:41;15.69;87.25
69436;SHT31;56625;54.322;18.582;2023-07-31T01:20:30;15.67;87.20
69436;SHT31;56625;54.322;18.582;2023-07-31T01:26:21;15.63;87.49
69436;SHT31;56625;54.322;18.582;2023-07-31T01:29:10;15.68;87.76
69436;SHT31;56625;54.322;18.582;2023-07-31T01:32:12;15.70;87.69
69436;SHT31;56625;54.322;18.582;2023-07-31T01:34:50;15.66;87.41
69436;SHT31;56625;54.322;18.582;2023-07-31T01:37:39;15.60;87.35
69436;SHT31;56625;54.322;18.582;2023-07-31T01:40:13;15.55;87.48
69436;SHT31;56625;54.322;18.582;2023-07-31T01:43:01;15.53;87.60
69436;SHT31;56625;54.322;18.582;2023-07-31T01:45:35;15.57;87.77
69436;SHT31;56625;54.322;18.582;2023-07-31T01:48:16;15.58;87.76
69436;SHT31;56625;54.322;18.582;2023-07-31T01:50:59;15.55;87.45
69436;SHT31;56625;54.322;18.582;2023-07-31T01:53:41;15.46;87.09
69436;SHT31;56625;54.322;18.582;2023-07-31T01:56:22;15.38;86.97
69436;SHT31;56625;54.322;18.582;2023-07-31T01:59:03;15.32;86.89
69436;SHT31;56625;54.322;18.582;2023-07-31T02:01:44;15.25;86.80
69436;SHT31;56625;54.322;18.582;2023-07-31T02:04:28;15.20;86.80
69436;SHT31;56625;54.322;18.582;2023-07-31T02:07:09;15.15;86.80
69436;SHT31;56625;54.322;18.582;2023-07-31T02:09:57;15.09;86.81
69436;SHT31;56625;54.322;18.582;2023-07-31T02:12:52;15.06;86.84
69436;SHT31;56625;54.322;18.582;2023-07-31T02:15:47;15.03;86.84
69436;SHT31;56625;54.322;18.582;2023-07-31T02:18:42;15.01;86.83
69436;SHT31;56625;54.322;18.582;2023-07-31T02:21:37;15.02;86.89
69436;SHT31;56625;54.322;18.582;2023-07-31T02:24:11;15.01;87.03
69436;SHT31;56625;54.322;18.582;2023-07-31T02:26:59;14.97;87.17
69436;SHT31;56625;54.322;18.582;2023-07-31T02:29:33;14.94;87.17
69436;SHT31;56625;54.322;18.582;2023-07-31T02:32:21;14.91;87.27
69436;SHT31;56625;54.322;18.582;2023-07-31T02:34:55;14.87;87.21
69436;SHT31;56625;54.322;18.582;2023-07-31T02:37:43;14.85;87.19
69436;SHT31;56625;54.322;18.582;2023-07-31T02:40:17;14.82;87.14
69436;SHT31;56625;54.322;18.582;2023-07-31T02:43:05;14.79;87.14
69436;SHT31;56625;54.322;18.582;2023-07-31T02:45:39;14.76;87.19
69436;SHT31;56625;54.322;18.582;2023-07-31T02:48:27;14.75;87.09
69436;SHT31;56625;54.322;18.582;2023-07-31T02:51:01;14.73;87.15
69436;SHT31;56625;54.322;18.582;2023-07-31T02:53:56;14.72;87.11
69436;SHT31;56625;54.322;18.582;2023-07-31T02:56:51;14.73;87.01
69436;SHT31;56625;54.322;18.582;2023-07-31T02:59:46;14.71;86.99
69436;SHT31;56625;54.322;18.582;2023-07-31T03:02:41;14.69;87.05
69436;SHT31;56625;54.322;18.582;2023-07-31T03:05:36;14.67;87.09
69436;SHT31;56625;54.322;18.582;2023-07-31T03:08:31;14.67;87.10
69436;SHT31;56625;54.322;18.582;2023-07-31T03:11:26;14.67;87.14
69436;SHT31;56625;54.322;18.582;2023-07-31T03:14:21;14.65;87.13
69436;SHT31;56625;54.322;18.582;2023-07-31T03:17:16;14.66;87.30
69436;SHT31;56625;54.322;18.582;2023-07-31T03:20:11;14.65;87.45
69436;SHT31;56625;54.322;18.582;2023-07-31T03:22:46;14.65;87.60
69436;SHT31;56625;54.322;18.582;2023-07-31T03:25:34;14.64;87.84
69436;SHT31;56625;54.322;18.582;2023-07-31T03:28:08;14.65;87.96
69436;SHT31;56625;54.322;18.582;2023-07-31T03:30:42;14.69;88.08
69436;SHT31;56625;54.322;18.582;2023-07-31T03:33:23;14.68;88.18
69436;SHT31;56625;54.322;18.582;2023-07-31T03:35:57;14.70;88.24
69436;SHT31;56625;54.322;18.582;2023-07-31T03:38:31;14.72;88.22
69436;SHT31;56625;54.322;18.582;2023-07-31T03:41:12;14.76;88.20
69436;SHT31;56625;54.322;18.582;2023-07-31T03:43:50;14.90;87.99
69436;SHT31;56625;54.322;18.582;2023-07-31T03:46:29;15.07;87.63
69436;SHT31;56625;54.322;18.582;2023-07-31T03:49:11;15.25;87.19
69436;SHT31;56625;54.322;18.582;2023-07-31T03:51:52;15.52;86.72
69436;SHT31;56625;54.322;18.582;2023-07-31T03:54:34;15.77;85.70
69436;SHT31;56625;54.322;18.582;2023-07-31T03:57:08;15.97;84.60
69436;SHT31;56625;54.322;18.582;2023-07-31T03:59:42;16.10;84.02
69436;SHT31;56625;54.322;18.582;2023-07-31T04:02:23;16.23;83.43
69436;SHT31;56625;54.322;18.582;2023-07-31T04:04:57;16.34;82.84
69436;SHT31;56625;54.322;18.582;2023-07-31T04:07:31;16.47;82.66
69436;SHT31;56625;54.322;18.582;2023-07-31T04:10:12;16.58;82.26
69436;SHT31;56625;54.322;18.582;2023-07-31T04:12:47;16.70;81.71
69436;SHT31;56625;54.322;18.582;2023-07-31T04:15:21;16.76;81.43
69436;SHT31;56625;54.322;18.582;2023-07-31T04:18:12;16.84;80.98
69436;SHT31;56625;54.322;18.582;2023-07-31T04:20:46;16.88;80.86
69436;SHT31;56625;54.322;18.582;2023-07-31T04:23:34;16.93;80.70
69436;SHT31;56625;54.322;18.582;2023-07-31T04:26:08;16.97;80.39
69436;SHT31;56625;54.322;18.582;2023-07-31T04:28:58;17.00;80.30
69436;SHT31;56625;54.322;18.582;2023-07-31T04:31:33;17.07;80.20
69436;SHT31;56625;54.322;18.582;2023-07-31T04:34:22;17.16;80.06
69436;SHT31;56625;54.322;18.582;2023-07-31T04:36:56;17.21;79.47
69436;SHT31;56625;54.322;18.582;2023-07-31T04:39:44;17.26;79.59
69436;SHT31;56625;54.322;18.582;2023-07-31T04:42:18;17.34;79.29
69436;SHT31;56625;54.322;18.582;2023-07-31T04:45:07;17.38;78.98
69436;SHT31;56625;54.322;18.582;2023-07-31T04:47:50;17.40;78.80
69436;SHT31;56625;54.322;18.582;2023-07-31T04:50:31;17.47;79.04
69436;SHT31;56625;54.322;18.582;2023-07-31T04:53:05;17.54;78.46
69436;SHT31;56625;54.322;18.582;2023-07-31T04:55:43;17.58;78.41
69436;SHT31;56625;54.322;18.582;2023-07-31T04:58:24;17.68;78.02
69436;SHT31;56625;54.322;18.582;2023-07-31T05:00:58;17.67;77.96
69436;SHT31;56625;54.322;18.582;2023-07-31T05:03:32;17.63;77.42
69436;SHT31;56625;54.322;18.582;2023-07-31T05:06:14;17.59;77.72
69436;SHT31;56625;54.322;18.582;2023-07-31T05:08:49;17.57;77.71
69436;SHT31;56625;54.322;18.582;2023-07-31T05:11:37;17.55;77.63
69436;SHT31;56625;54.322;18.582;2023-07-31T05:14:11;17.59;77.67
69436;SHT31;56625;54.322;18.582;2023-07-31T05:16:59;17.65;77.16
69436;SHT31;56625;54.322;18.582;2023-07-31T05:19:33;17.69;76.81
69436;SHT31;56625;54.322;18.582;2023-07-31T05:22:21;17.68;76.80
69436;SHT31;56625;54.322;18.582;2023-07-31T05:24:55;17.68;76.50
69436;SHT31;56625;54.322;18.582;2023-07-31T05:27:43;17.74;76.44
69436;SHT31;56625;54.322;18.582;2023-07-31T05:30:17;17.80;76.19
69436;SHT31;56625;54.322;18.582;2023-07-31T05:33:05;17.75;75.51
69436;SHT31;56625;54.322;18.582;2023-07-31T05:35:39;17.72;75.82
69436;SHT31;56625;54.322;18.582;2023-07-31T05:38:27;17.70;75.42
69436;SHT31;56625;54.322;18.582;2023-07-31T05:41:01;17.71;75.53
69436;SHT31;56625;54.322;18.582;2023-07-31T05:43:49;17.75;75.48
69436;SHT31;56625;54.322;18.582;2023-07-31T05:46:23;17.82;75.32
69436;SHT31;56625;54.322;18.582;2023-07-31T05:49:12;17.82;74.39
69436;SHT31;56625;54.322;18.582;2023-07-31T05:51:46;17.81;74.07
69436;SHT31;56625;54.322;18.582;2023-07-31T05:54:34;17.79;73.88
69436;SHT31;56625;54.322;18.582;2023-07-31T05:57:08;17.82;73.98
69436;SHT31;56625;54.322;18.582;2023-07-31T05:59:56;17.84;73.69
69436;SHT31;56625;54.322;18.582;2023-07-31T06:02:30;17.88;73.81
69436;SHT31;56625;54.322;18.582;2023-07-31T06:05:20;17.97;73.91
69436;SHT31;56625;54.322;18.582;2023-07-31T06:07:54;18.07;73.91
69436;SHT31;56625;54.322;18.582;2023-07-31T06:10:42;18.18;73.40
69436;SHT31;56625;54.322;18.582;2023-07-31T06:13:37;18.25;72.44
69436;SHT31;56625;54.322;18.582;2023-07-31T06:16:32;18.28;72.03
69436;SHT31;56625;54.322;18.582;2023-07-31T06:19:07;18.24;71.09
69436;SHT31;56625;54.322;18.582;2023-07-31T06:21:55;18.23;71.37
69436;SHT31;56625;54.322;18.582;2023-07-31T06:24:29;18.32;71.77
69436;SHT31;56625;54.322;18.582;2023-07-31T06:27:17;18.45;72.10
69436;SHT31;56625;54.322;18.582;2023-07-31T06:29:51;18.60;71.72
69436;SHT31;56625;54.322;18.582;2023-07-31T06:32:39;18.67;70.29
69436;SHT31;56625;54.322;18.582;2023-07-31T06:35:14;18.68;69.89
69436;SHT31;56625;54.322;18.582;2023-07-31T06:38:02;18.76;70.34
69436;SHT31;56625;54.322;18.582;2023-07-31T06:40:36;18.90;70.50
69436;SHT31;56625;54.322;18.582;2023-07-31T06:43:10;18.94;69.09
69436;SHT31;56625;54.322;18.582;2023-07-31T06:46:05;18.93;68.78
69436;SHT31;56625;54.322;18.582;2023-07-31T06:48:41;18.94;69.12
69436;SHT31;56625;54.322;18.582;2023-07-31T06:51:29;18.97;68.95
69436;SHT31;56625;54.322;18.582;2023-07-31T06:54:05;19.05;68.92
69436;SHT31;56625;54.322;18.582;2023-07-31T06:56:53;19.16;67.79
69436;SHT31;56625;54.322;18.582;2023-07-31T06:59:27;19.24;67.78
69436;SHT31;56625;54.322;18.582;2023-07-31T07:02:15;19.32;66.33
69436;SHT31;56625;54.322;18.582;2023-07-31T07:04:49;19.33;65.32
69436;SHT31;56625;54.322;18.582;2023-07-31T07:07:37;19.35;64.57
69436;SHT31;56625;54.322;18.582;2023-07-31T07:10:11;19.41;65.50
69436;SHT31;56625;54.322;18.582;2023-07-31T07:13:06;19.49;63.49
69436;SHT31;56625;54.322;18.582;2023-07-31T07:16:01;19.52;63.47
69436;SHT31;56625;54.322;18.582;2023-07-31T07:18:56;19.61;62.82
69436;SHT31;56625;54.322;18.582;2023-07-31T07:21:51;19.66;63.08
69436;SHT31;56625;54.322;18.582;2023-07-31T07:24:48;19.72;62.64
69436;SHT31;56625;54.322;18.582;2023-07-31T07:27:43;19.82;61.91
69436;SHT31;56625;54.322;18.582;2023-07-31T07:30:38;19.91;61.25
69436;SHT31;56625;54.322;18.582;2023-07-31T07:33:33;20.04;61.43
69436;SHT31;56625;54.322;18.582;2023-07-31T07:36:28;20.16;60.61
69436;SHT31;56625;54.322;18.582;2023-07-31T07:39:23;20.20;60.76
69436;SHT31;56625;54.322;18.582;2023-07-31T07:42:18;20.36;61.39
69436;SHT31;56625;54.322;18.582;2023-07-31T07:45:13;20.47;59.26
69436;SHT31;56625;54.322;18.582;2023-07-31T07:48:08;20.46;57.74
69436;SHT31;56625;54.322;18.582;2023-07-31T07:51:04;20.41;57.70
69436;SHT31;56625;54.322;18.582;2023-07-31T07:53:59;20.26;58.23
69436;SHT31;56625;54.322;18.582;2023-07-31T07:56:54;20.30;59.71
69436;SHT31;56625;54.322;18.582;2023-07-31T07:59:49;20.49;59.97
69436;SHT31;56625;54.322;18.582;2023-07-31T08:02:44;20.75;59.50
69436;SHT31;56625;54.322;18.582;2023-07-31T08:05:39;20.92;57.69
69436;SHT31;56625;54.322;18.582;2023-07-31T08:08:34;21.14;56.97
69436;SHT31;56625;54.322;18.582;2023-07-31T08:11:09;21.38;55.89
69436;SHT31;56625;54.322;18.582;2023-07-31T08:13:57;21.43;56.06
69436;SHT31;56625;54.322;18.582;2023-07-31T08:16:31;21.49;54.26
69436;SHT31;56625;54.322;18.582;2023-07-31T08:19:19;21.48;55.37
69436;SHT31;56625;54.322;18.582;2023-07-31T08:21:54;21.65;54.48
69436;SHT31;56625;54.322;18.582;2023-07-31T08:24:42;21.74;54.85
69436;SHT31;56625;54.322;18.582;2023-07-31T08:27:16;21.89;53.92
69436;SHT31;56625;54.322;18.582;2023-07-31T08:30:04;21.94;52.70
69436;SHT31;56625;54.322;18.582;2023-07-31T08:32:39;21.97;52.68
69436;SHT31;56625;54.322;18.582;2023-07-31T08:35:27;21.78;51.36
69436;SHT31;56625;54.322;18.582;2023-07-31T08:38:04;21.50;50.88
69436;SHT31;56625;54.322;18.582;2023-07-31T08:40:38;21.37;51.81
69436;SHT31;56625;54.322;18.582;2023-07-31T08:43:19;21.26;52.02
69436;SHT31;56625;54.322;18.582;2023-07-31T08:46:05;21.27;51.78
69436;SHT31;56625;54.322;18.582;2023-07-31T08:48:47;21.17;52.29
69436;SHT31;56625;54.322;18.582;2023-07-31T08:51:28;21.24;52.64
69436;SHT31;56625;54.322;18.582;2023-07-31T08:54:10;21.39;51.33
69436;SHT31;56625;54.322;18.582;2023-07-31T08:56:51;21.57;52.65
69436;SHT31;56625;54.322;18.582;2023-07-31T08:59:34;21.82;52.74
69436;SHT31;56625;54.322;18.582;2023-07-31T09:02:15;22.03;51.92
69436;SHT31;56625;54.322;18.582;2023-07-31T09:04:59;22.25;51.01
69436;SHT31;56625;54.322;18.582;2023-07-31T09:07:42;22.23;50.70
69436;SHT31;56625;54.322;18.582;2023-07-31T09:10:27;22.25;50.57
69436;SHT31;56625;54.322;18.582;2023-07-31T09:13:09;22.25;49.48
69436;SHT31;56625;54.322;18.582;2023-07-31T09:15:57;22.26;48.42
69436;SHT31;56625;54.322;18.582;2023-07-31T09:18:39;22.40;49.31
69436;SHT31;56625;54.322;18.582;2023-07-31T09:21:48;22.45;48.56
69436;SHT31;56625;54.322;18.582;2023-07-31T09:24:30;22.37;48.08
69436;SHT31;56625;54.322;18.582;2023-07-31T09:27:27;22.21;48.58
69436;SHT31;56625;54.322;18.582;2023-07-31T09:30:48;22.36;49.58
69436;SHT31;56625;54.322;18.582;2023-07-31T09:33:54;22.51;48.71
69436;SHT31;56625;54.322;18.582;2023-07-31T09:36:39;22.76;49.08
69436;SHT31;56625;54.322;18.582;2023-07-31T09:39:27;23.05;48.79
69436;SHT31;56625;54.322;18.582;2023-07-31T09:42:10;23.23;47.81
69436;SHT31;56625;54.322;18.582;2023-07-31T09:44:51;23.01;46.34
69436;SHT31;56625;54.322;18.582;2023-07-31T09:47:32;22.66;48.71
69436;SHT31;56625;54.322;18.582;2023-07-31T09:50:13;22.54;49.85
69436;SHT31;56625;54.322;18.582;2023-07-31T09:52:56;22.87;49.73
69436;SHT31;56625;54.322;18.582;2023-07-31T09:55:37;23.19;47.99
69436;SHT31;56625;54.322;18.582;2023-07-31T09:58:20;23.27;45.41
69436;SHT31;56625;54.322;18.582;2023-07-31T10:01:02;23.02;44.71
69436;SHT31;56625;54.322;18.582;2023-07-31T10:03:44;22.90;42.77
69436;SHT31;56625;54.322;18.582;2023-07-31T10:06:33;22.98;43.96
69436;SHT31;56625;54.322;18.582;2023-07-31T10:09:11;23.06;43.52
69436;SHT31;56625;54.322;18.582;2023-07-31T10:12:12;23.15;43.30
69436;SHT31;56625;54.322;18.582;2023-07-31T10:15:13;23.50;42.65
69436;SHT31;56625;54.322;18.582;2023-07-31T10:18:09;23.70;43.54
69436;SHT31;56625;54.322;18.582;2023-07-31T10:21:06;24.05;43.78
69436;SHT31;56625;54.322;18.582;2023-07-31T10:24:05;24.11;44.90
69436;SHT31;56625;54.322;18.582;2023-07-31T10:27:01;24.27;45.51
69436;SHT31;56625;54.322;18.582;2023-07-31T10:29:56;24.20;44.63
69436;SHT31;56625;54.322;18.582;2023-07-31T10:32:53;24.08;44.65
69436;SHT31;56625;54.322;18.582;2023-07-31T10:35:28;23.74;45.19
69436;SHT31;56625;54.322;18.582;2023-07-31T10:38:16;23.73;45.68
69436;SHT31;56625;54.322;18.582;2023-07-31T10:40:50;23.93;45.92
69436;SHT31;56625;54.322;18.582;2023-07-31T10:43:38;24.14;45.48
69436;SHT31;56625;54.322;18.582;2023-07-31T10:46:13;24.02;43.34
69436;SHT31;56625;54.322;18.582;2023-07-31T10:49:02;23.75;44.52
69436;SHT31;56625;54.322;18.582;2023-07-31T10:51:37;23.58;45.29
69436;SHT31;56625;54.322;18.582;2023-07-31T10:54:28;23.51;45.10
69436;SHT31;56625;54.322;18.582;2023-07-31T10:57:02;23.61;44.85
69436;SHT31;56625;54.322;18.582;2023-07-31T11:00:44;23.80;44.82
69436;SHT31;56625;54.322;18.582;2023-07-31T11:03:16;23.76;44.33
69436;SHT31;56625;54.322;18.582;2023-07-31T11:06:06;23.53;45.04
69436;SHT31;56625;54.322;18.582;2023-07-31T11:08:51;23.35;45.64
69436;SHT31;56625;54.322;18.582;2023-07-31T11:11:32;23.13;46.38
69436;SHT31;56625;54.322;18.582;2023-07-31T11:14:14;23.07;46.34
69436;SHT31;56625;54.322;18.582;2023-07-31T11:16:55;23.10;46.34
69436;SHT31;56625;54.322;18.582;2023-07-31T11:19:36;23.23;46.19
69436;SHT31;56625;54.322;18.582;2023-07-31T11:22:18;23.30;46.58
69436;SHT31;56625;54.322;18.582;2023-07-31T11:24:59;23.41;46.68
69436;SHT31;56625;54.322;18.582;2023-07-31T11:27:40;23.30;46.48
69436;SHT31;56625;54.322;18.582;2023-07-31T11:30:22;23.04;47.40
69436;SHT31;56625;54.322;18.582;2023-07-31T11:33:04;22.75;48.19
69436;SHT31;56625;54.322;18.582;2023-07-31T11:35:47;22.52;49.32
69436;SHT31;56625;54.322;18.582;2023-07-31T11:41:13;22.54;50.68
69436;SHT31;56625;54.322;18.582;2023-07-31T11:43:59;22.50;50.71
69436;SHT31;56625;54.322;18.582;2023-07-31T11:47:07;22.48;50.68
69436;SHT31;56625;54.322;18.582;2023-07-31T11:50:10;22.56;50.95
69436;SHT31;56625;54.322;18.582;2023-07-31T11:53:06;22.67;51.07
69436;SHT31;56625;54.322;18.582;2023-07-31T11:56:03;22.61;50.00
69436;SHT31;56625;54.322;18.582;2023-07-31T11:58:59;22.55;49.79
69436;SHT31;56625;54.322;18.582;2023-07-31T12:01:37;22.59;50.00
69436;SHT31;56625;54.322;18.582;2023-07-31T12:04:24;22.67;50.52
69436;SHT31;56625;54.322;18.582;2023-07-31T12:07:00;22.78;50.39
69436;SHT31;56625;54.322;18.582;2023-07-31T12:09:54;22.83;50.08
69436;SHT31;56625;54.322;18.582;2023-07-31T12:16:02;22.71;50.93
69436;SHT31;56625;54.322;18.582;2023-07-31T12:18:58;22.67;50.76
69436;SHT31;56625;54.322;18.582;2023-07-31T12:21:32;22.62;50.82
69436;SHT31;56625;54.322;18.582;2023-07-31T12:24:20;22.49;51.50
69436;SHT31;56625;54.322;18.582;2023-07-31T12:26:54;22.44;51.50
69436;SHT31;56625;54.322;18.582;2023-07-31T12:29:42;22.34;52.18
69436;SHT31;56625;54.322;18.582;2023-07-31T12:32:26;22.33;52.68
69436;SHT31;56625;54.322;18.582;2023-07-31T12:35:10;22.17;53.03
69436;SHT31;56625;54.322;18.582;2023-07-31T12:37:51;21.93;53.87
69436;SHT31;56625;54.322;18.582;2023-07-31T12:40:33;21.70;54.62
69436;SHT31;56625;54.322;18.582;2023-07-31T12:43:18;21.52;55.67
69436;SHT31;56625;54.322;18.582;2023-07-31T12:45:59;21.56;56.24
69436;SHT31;56625;54.322;18.582;2023-07-31T12:48:40;21.66;55.89
69436;SHT31;56625;54.322;18.582;2023-07-31T12:51:21;21.64;55.63
69436;SHT31;56625;54.322;18.582;2023-07-31T14:59:37;20.68;62.69
69436;SHT31;56625;54.322;18.582;2023-07-31T15:02:06;20.77;62.27
69436;SHT31;56625;54.322;18.582;2023-07-31T15:04:37;20.93;62.34
69436;SHT31;56625;54.322;18.582;2023-07-31T15:07:05;21.15;61.74
69436;SHT31;56625;54.322;18.582;2023-07-31T15:09:33;21.29;60.90
69436;SHT31;56625;54.322;18.582;2023-07-31T15:12:01;21.18;60.46
69436;SHT31;56625;54.322;18.582;2023-07-31T15:14:30;21.03;60.97
69436;SHT31;56625;54.322;18.582;2023-07-31T15:16:59;21.04;61.45
69436;SHT31;56625;54.322;18.582;2023-07-31T15:19:27;21.11;61.45
69436;SHT31;56625;54.322;18.582;2023-07-31T15:32:25;21.26;62.46
69436;SHT31;56625;54.322;18.582;2023-07-31T15:34:54;21.13;62.49
69436;SHT31;56625;54.322;18.582;2023-07-31T15:37:22;21.15;62.53
69436;SHT31;56625;54.322;18.582;2023-07-31T15:39:50;21.07;62.03
69436;SHT31;56625;54.322;18.582;2023-07-31T15:42:18;21.03;62.46
69436;SHT31;56625;54.322;18.582;2023-07-31T15:44:46;20.89;62.87
69436;SHT31;56625;54.322;18.582;2023-07-31T15:47:14;20.73;63.28
69436;SHT31;56625;54.322;18.582;2023-07-31T15:49:42;20.75;63.99
69436;SHT31;56625;54.322;18.582;2023-07-31T15:52:09;20.79;64.34
69436;SHT31;56625;54.322;18.582;2023-07-31T15:54:38;20.67;64.89
69436;SHT31;56625;54.322;18.582;2023-07-31T15:57:06;20.52;64.39
69436;SHT31;56625;54.322;18.582;2023-07-31T15:59:34;20.35;64.66
69436;SHT31;56625;54.322;18.582;2023-07-31T16:02:02;20.27;65.10
69436;SHT31;56625;54.322;18.582;2023-07-31T16:04:30;20.24;65.60
69436;SHT31;56625;54.322;18.582;2023-07-31T16:06:58;20.27;65.91
69436;SHT31;56625;54.322;18.582;2023-07-31T16:09:26;20.27;66.41
69436;SHT31;56625;54.322;18.582;2023-07-31T16:11:55;20.30;66.42
69436;SHT31;56625;54.322;18.582;2023-07-31T16:14:23;20.32;66.23
69436;SHT31;56625;54.322;18.582;2023-07-31T16:16:56;20.38;66.32
69436;SHT31;56625;54.322;18.582;2023-07-31T16:19:28;20.29;66.73
69436;SHT31;56625;54.322;18.582;2023-07-31T16:21:56;20.22;67.40
69436;SHT31;56625;54.322;18.582;2023-07-31T16:24:28;20.10;67.96
69436;SHT31;56625;54.322;18.582;2023-07-31T16:26:56;19.98;68.40
69436;SHT31;56625;54.322;18.582;2023-07-31T16:29:26;19.96;68.47
69436;SHT31;56625;54.322;18.582;2023-07-31T16:31:53;19.95;68.71
69436;SHT31;56625;54.322;18.582;2023-07-31T16:34:25;19.95;68.75
69436;SHT31;56625;54.322;18.582;2023-07-31T16:36:54;20.02;68.80
69436;SHT31;56625;54.322;18.582;2023-07-31T16:39:23;20.06;68.81
69436;SHT31;56625;54.322;18.582;2023-07-31T16:41:52;20.07;68.96
69436;SHT31;56625;54.322;18.582;2023-07-31T16:44:20;20.03;69.26
69436;SHT31;56625;54.322;18.582;2023-07-31T16:46:48;19.99;69.61
69436;SHT31;56625;54.322;18.582;2023-07-31T16:49:16;19.95;69.78
69436;SHT31;56625;54.322;18.582;2023-07-31T16:51:44;19.96;70.01
69436;SHT31;56625;54.322;18.582;2023-07-31T16:54:12;20.00;70.29
69436;SHT31;56625;54.322;18.582;2023-07-31T16:56:40;20.17;69.79
69436;SHT31;56625;54.322;18.582;2023-07-31T16:59:26;20.35;69.24
69436;SHT31;56625;54.322;18.582;2023-07-31T17:01:55;20.47;68.82
69436;SHT31;56625;54.322;18.582;2023-07-31T17:04:27;20.37;68.47
69436;SHT31;56625;54.322;18.582;2023-07-31T17:06:58;20.23;69.01
69436;SHT31;56625;54.322;18.582;2023-07-31T17:09:26;20.47;68.51
69436;SHT31;56625;54.322;18.582;2023-07-31T17:11:54;20.98;67.37
69436;SHT31;56625;54.322;18.582;2023-07-31T17:14:28;20.90;67.32
69436;SHT31;56625;54.322;18.582;2023-07-31T17:16:56;20.65;68.09
69436;SHT31;56625;54.322;18.582;2023-07-31T17:19:24;20.40;68.76
69436;SHT31;56625;54.322;18.582;2023-07-31T17:21:52;20.18;69.39
69436;SHT31;56625;54.322;18.582;2023-07-31T17:24:20;20.08;69.69
69436;SHT31;56625;54.322;18.582;2023-07-31T17:26:48;20.01;70.06
69436;SHT31;56625;54.322;18.582;2023-07-31T17:29:16;19.92;70.32
69436;SHT31;56625;54.322;18.582;2023-07-31T17:31:44;19.87;70.55
69436;SHT31;56625;54.322;18.582;2023-07-31T17:34:12;19.84;70.66
69436;SHT31;56625;54.322;18.582;2023-07-31T17:36:40;19.78;70.65
69436;SHT31;56625;54.322;18.582;2023-07-31T17:39:09;19.76;70.91
69436;SHT31;56625;54.322;18.582;2023-07-31T17:41:37;19.72;71.21
69436;SHT31;56625;54.322;18.582;2023-07-31T17:44:05;19.69;71.53
69436;SHT31;56625;54.322;18.582;2023-07-31T17:46:33;19.66;71.68
69436;SHT31;56625;54.322;18.582;2023-07-31T17:49:01;19.66;71.78
69436;SHT31;56625;54.322;18.582;2023-07-31T17:51:30;19.63;71.98
69436;SHT31;56625;54.322;18.582;2023-07-31T17:54:01;19.60;72.02
69436;SHT31;56625;54.322;18.582;2023-07-31T17:56:29;19.58;72.12
69436;SHT31;56625;54.322;18.582;2023-07-31T17:58:59;19.54;72.08
69436;SHT31;56625;54.322;18.582;2023-07-31T18:01:27;19.50;72.14
69436;SHT31;56625;54.322;18.582;2023-07-31T18:03:55;19.46;72.21
69436;SHT31;56625;54.322;18.582;2023-07-31T18:06:23;19.43;72.44
69436;SHT31;56625;54.322;18.582;2023-07-31T18:08:51;19.43;72.46
69436;SHT31;56625;54.322;18.582;2023-07-31T18:11:19;19.41;72.54
69436;SHT31;56625;54.322;18.582;2023-07-31T18:13:48;19.38;72.51
69436;SHT31;56625;54.322;18.582;2023-07-31T18:16:16;19.37;72.53
69436;SHT31;56625;54.322;18.582;2023-07-31T18:18:44;19.35;72.70
69436;SHT31;56625;54.322;18.582;2023-07-31T18:21:12;19.30;72.87
69436;SHT31;56625;54.322;18.582;2023-07-31T18:23:40;19.28;73.19
69436;SHT31;56625;54.322;18.582;2023-07-31T18:26:08;19.23;73.37
69436;SHT31;56625;54.322;18.582;2023-07-31T18:28:36;19.19;73.51
69436;SHT31;56625;54.322;18.582;2023-07-31T18:31:04;19.20;73.55
69436;SHT31;56625;54.322;18.582;2023-07-31T18:33:33;19.17;73.76
69436;SHT31;56625;54.322;18.582;2023-07-31T18:36:05;19.13;73.87
69436;SHT31;56625;54.322;18.582;2023-07-31T18:38:33;19.11;74.06
69436;SHT31;56625;54.322;18.582;2023-07-31T18:41:03;19.08;74.10
69436;SHT31;56625;54.322;18.582;2023-07-31T18:43:33;19.05;74.19
69436;SHT31;56625;54.322;18.582;2023-07-31T18:46:01;19.04;74.19
69436;SHT31;56625;54.322;18.582;2023-07-31T18:48:30;19.00;74.32
69436;SHT31;56625;54.322;18.582;2023-07-31T18:50:58;18.97;74.55
69436;SHT31;56625;54.322;18.582;2023-07-31T18:53:26;18.94;74.66
69436;SHT31;56625;54.322;18.582;2023-07-31T18:55:54;18.92;74.82
69436;SHT31;56625;54.322;18.582;2023-07-31T18:58:23;18.91;74.94
69436;SHT31;56625;54.322;18.582;2023-07-31T19:00:51;18.88;75.04
69436;SHT31;56625;54.322;18.582;2023-07-31T19:03:19;18.86;75.20
69436;SHT31;56625;54.322;18.582;2023-07-31T19:05:47;18.85;75.22
69436;SHT31;56625;54.322;18.582;2023-07-31T19:08:15;18.84;75.42